Time;durP1;ratioP1;P1;durP2;ratioP2;P2;SDS_P1;SDS_P2;PMS_P1;PMS_P2;Temp;Humidity;BMP_temperature;BMP_pressure;BME280_temperature;BME280_humidity;BME280_pressure;Samples;Min_cycle;Max_cycle;Signal;HPM_P1;HPM_P2
2022/09/22 00:01:39;;;;;;;1.30;1.10;;;11.00;39.70;;;;;;5031127;28;20591;-72
2022/09/22 00:04:09;;;;;;;1.30;1.10;;;11.20;39.90;;;;;;5029971;28;20183;-72
2022/09/22 00:06:42;;;;;;;1.30;1.10;;;11.20;39.60;;;;;;5030429;28;20190;-72
2022/09/22 00:09:11;;;;;;;1.30;1.10;;;10.90;39.90;;;;;;5030523;28;20229;-72
2022/09/22 00:11:39;;;;;;;1.40;1.10;;;11.10;41.10;;;;;;5030037;28;20677;-74
2022/09/22 00:14:12;;;;;;;1.30;1.05;;;10.80;40.90;;;;;;5030533;28;20182;-72
2022/09/22 00:17:05;;;;;;;1.30;1.10;;;10.80;40.70;;;;;;5030581;28;20706;-72
2022/09/22 00:19:34;;;;;;;1.40;1.20;;;10.90;41.10;;;;;;5030141;28;20303;-73
2022/09/22 00:22:00;;;;;;;1.30;1.10;;;10.80;40.30;;;;;;5029928;28;20177;-72
2022/09/22 00:24:26;;;;;;;1.40;1.00;;;10.70;41.50;;;;;;5022803;28;20241;-73
2022/09/22 00:26:56;;;;;;;1.35;1.10;;;10.70;40.40;;;;;;5029155;28;20528;-72
2022/09/22 00:29:22;;;;;;;1.30;1.10;;;10.60;40.70;;;;;;5030607;28;20283;-72
2022/09/22 00:31:48;;;;;;;1.40;1.23;;;10.70;40.50;;;;;;5030020;28;20188;-73
2022/09/22 00:34:17;;;;;;;1.30;1.00;;;10.70;40.70;;;;;;5029419;28;20184;-72
2022/09/22 00:36:43;;;;;;;1.30;1.10;;;10.80;41.00;;;;;;5030332;28;20427;-73
2022/09/22 00:39:09;;;;;;;1.30;1.10;;;10.60;42.00;;;;;;5030462;28;20204;-72
2022/09/22 00:41:39;;;;;;;1.30;1.00;;;10.60;41.60;;;;;;5066000;22;20215;-68
2022/09/22 00:44:19;;;;;;;1.30;1.10;;;10.60;42.10;;;;;;4990658;28;20388;-69
2022/09/22 00:46:50;;;;;;;1.40;1.15;;;10.60;41.10;;;;;;4990946;28;20182;-68
2022/09/22 00:49:19;;;;;;;1.30;1.00;;;10.80;41.30;;;;;;4991373;28;20699;-69
2022/09/22 00:51:44;;;;;;;1.38;1.10;;;10.70;41.10;;;;;;4993601;28;20198;-69
2022/09/22 00:54:14;;;;;;;1.40;1.10;;;10.80;40.00;;;;;;5010546;28;20677;-69
2022/09/22 00:56:58;;;;;;;1.33;1.10;;;10.70;41.00;;;;;;5006101;28;20316;-69
2022/09/22 00:59:25;;;;;;;1.30;1.00;;;10.60;41.10;;;;;;5008155;28;20252;-69
2022/09/22 01:01:51;;;;;;;1.50;1.20;;;11.00;41.00;;;;;;5013671;28;20224;-69
2022/09/22 01:04:17;;;;;;;1.30;1.10;;;10.60;40.30;;;;;;5006373;28;20189;-70
2022/09/22 01:06:44;;;;;;;1.30;1.10;;;10.60;40.50;;;;;;5005922;28;20177;-70
2022/09/22 01:09:10;;;;;;;1.30;1.00;;;10.50;41.00;;;;;;5006929;28;20549;-69
2022/09/22 01:11:38;;;;;;;1.30;1.10;;;10.50;40.80;;;;;;5005924;28;20597;-70
2022/09/22 01:14:22;;;;;;;1.30;1.05;;;10.30;40.80;;;;;;5013793;28;20174;-69
2022/09/22 01:17:16;;;;;;;1.30;1.08;;;10.30;41.80;;;;;;5012046;28;20180;-70
2022/09/22 01:20:18;;;;;;;1.33;1.10;;;10.40;40.90;;;;;;5008173;28;20181;-69
2022/09/22 01:23:04;;;;;;;1.30;1.20;;;10.50;40.60;;;;;;5009040;28;20203;-70
2022/09/22 01:26:04;;;;;;;1.30;1.05;;;10.40;40.90;;;;;;4999866;28;20548;-70
2022/09/22 01:29:12;;;;;;;1.30;1.10;;;10.30;41.20;;;;;;5007673;28;20197;-70
2022/09/22 01:31:44;;;;;;;1.30;1.00;;;10.20;41.30;;;;;;5001215;28;20300;-70
2022/09/22 01:34:24;;;;;;;1.30;1.00;;;10.30;40.90;;;;;;5009082;28;20189;-70
2022/09/22 01:37:02;;;;;;;1.30;1.05;;;10.20;41.70;;;;;;5008539;28;20739;-69
2022/09/22 01:39:35;;;;;;;1.30;1.10;;;10.10;41.00;;;;;;5013474;28;20184;-69
2022/09/22 01:42:06;;;;;;;1.40;1.10;;;10.40;40.20;;;;;;5004563;28;20234;-69
2022/09/22 01:44:36;;;;;;;1.30;1.10;;;10.30;40.70;;;;;;5005413;28;20598;-70
2022/09/22 01:47:19;;;;;;;1.30;1.00;;;10.10;40.40;;;;;;5005348;28;20197;-69
2022/09/22 01:49:50;;;;;;;1.30;1.10;;;10.10;40.80;;;;;;5008684;28;20718;-69
2022/09/22 01:52:24;;;;;;;1.30;1.10;;;10.20;41.00;;;;;;5004779;28;20224;-70
2022/09/22 01:55:02;;;;;;;1.30;1.00;;;10.20;40.30;;;;;;5005078;28;20188;-70
2022/09/22 01:58:11;;;;;;;1.30;1.00;;;10.10;41.20;;;;;;5013425;28;20188;-69
2022/09/22 02:00:42;;;;;;;1.30;1.00;;;10.20;40.20;;;;;;5000610;28;20193;-69
2022/09/22 02:03:13;;;;;;;1.30;1.00;;;10.10;41.00;;;;;;5009179;28;20652;-69
2022/09/22 02:05:58;;;;;;;1.30;1.00;;;10.00;40.90;;;;;;5002014;28;20174;-69
2022/09/22 02:08:32;;;;;;;1.30;1.10;;;9.90;42.30;;;;;;5012876;28;20201;-69
2022/09/22 02:11:04;;;;;;;1.30;1.10;;;9.90;43.00;;;;;;5012845;28;20197;-69
2022/09/22 02:13:30;;;;;;;1.30;1.10;;;9.90;42.30;;;;;;5012212;28;20181;-70
2022/09/22 02:16:01;;;;;;;1.30;1.00;;;9.90;42.30;;;;;;5012594;28;20186;-69
2022/09/22 02:18:49;;;;;;;1.40;1.00;;;9.90;42.40;;;;;;5004956;28;20186;-69
2022/09/22 02:21:15;;;;;;;1.40;1.13;;;9.80;43.00;;;;;;5003935;28;20201;-70
2022/09/22 02:23:43;;;;;;;1.30;1.00;;;9.70;43.20;;;;;;5005538;28;20308;-70
2022/09/22 02:26:10;;;;;;;1.30;1.00;;;9.70;42.90;;;;;;5012134;28;20247;-70
2022/09/22 02:28:39;;;;;;;1.30;1.00;;;9.90;42.20;;;;;;5004672;28;20204;-69
2022/09/22 02:31:08;;;;;;;1.35;1.10;;;10.00;40.80;;;;;;5012074;28;20205;-69
2022/09/22 02:33:37;;;;;;;1.30;1.00;;;10.10;40.00;;;;;;5011993;28;20173;-70
2022/09/22 02:36:27;;;;;;;1.30;1.10;;;10.00;40.00;;;;;;5011394;28;20549;-70
2022/09/22 02:39:01;;;;;;;1.30;1.00;;;9.90;42.10;;;;;;5006282;28;20174;-69
2022/09/22 02:41:37;;;;;;;1.30;1.10;;;9.90;42.30;;;;;;5002971;28;20722;-70
2022/09/22 02:44:11;;;;;;;1.30;1.10;;;9.80;42.90;;;;;;5000886;28;20181;-69
2022/09/22 02:46:46;;;;;;;1.33;1.08;;;9.80;42.30;;;;;;5009951;28;20279;-69
2022/09/22 02:49:16;;;;;;;1.33;1.08;;;9.70;42.30;;;;;;5007394;28;20215;-70
2022/09/22 02:51:42;;;;;;;1.30;1.00;;;9.70;42.40;;;;;;5011738;28;20197;-70
2022/09/22 02:54:08;;;;;;;1.30;1.00;;;9.80;42.30;;;;;;5011711;28;20188;-70
2022/09/22 02:56:34;;;;;;;1.30;1.10;;;9.70;42.50;;;;;;5004346;28;20503;-69
2022/09/22 02:58:59;;;;;;;1.40;1.10;;;9.70;41.90;;;;;;5012104;28;20192;-70
2022/09/22 03:01:25;;;;;;;1.30;1.10;;;9.80;42.20;;;;;;5004549;28;20210;-70
2022/09/22 03:03:51;;;;;;;1.30;1.07;;;10.00;42.00;;;;;;5010871;28;20260;-69
2022/09/22 03:06:17;;;;;;;1.40;1.10;;;9.50;42.30;;;;;;5012376;28;20276;-69
2022/09/22 03:08:42;;;;;;;1.30;1.10;;;9.50;43.20;;;;;;5011125;28;20198;-69
2022/09/22 03:11:08;;;;;;;1.30;1.00;;;9.60;42.70;;;;;;5007867;28;20399;-69
2022/09/22 03:13:34;;;;;;;1.30;1.10;;;9.70;41.90;;;;;;5003976;28;20666;-70
2022/09/22 03:15:59;;;;;;;1.30;1.00;;;9.70;41.90;;;;;;5010031;28;20248;-69
2022/09/22 03:18:25;;;;;;;1.30;1.00;;;9.40;42.50;;;;;;5006322;28;20216;-69
2022/09/22 03:20:50;;;;;;;1.30;1.10;;;9.40;43.40;;;;;;5008378;28;20212;-69
2022/09/22 03:23:16;;;;;;;1.30;1.10;;;9.50;42.50;;;;;;5008107;28;20593;-69
2022/09/22 03:25:42;;;;;;;1.30;1.10;;;9.50;41.80;;;;;;5007355;28;20211;-70
2022/09/22 03:28:07;;;;;;;1.30;1.10;;;9.50;41.80;;;;;;5011513;28;20193;-69
2022/09/22 03:30:35;;;;;;;1.30;1.10;;;9.40;41.80;;;;;;5011529;28;20169;-70
2022/09/22 03:33:01;;;;;;;1.30;1.10;;;9.40;42.20;;;;;;5010689;28;20169;-68
2022/09/22 03:35:27;;;;;;;1.30;1.10;;;9.40;41.90;;;;;;5011615;28;20185;-68
2022/09/22 03:37:53;;;;;;;1.30;1.10;;;9.30;43.10;;;;;;5011175;28;20427;-69
2022/09/22 03:40:20;;;;;;;1.30;1.10;;;9.20;42.50;;;;;;5010960;28;20255;-69
2022/09/22 03:42:45;;;;;;;1.33;1.10;;;9.20;42.30;;;;;;5005522;28;20668;-69
2022/09/22 03:45:11;;;;;;;1.50;1.20;;;9.30;42.30;;;;;;5008759;28;20319;-69
2022/09/22 03:47:37;;;;;;;1.30;1.10;;;9.20;42.20;;;;;;5011672;28;20664;-69
2022/09/22 03:50:03;;;;;;;1.30;1.10;;;9.20;42.10;;;;;;5003097;28;20208;-69
2022/09/22 03:52:30;;;;;;;1.30;1.00;;;9.30;41.80;;;;;;5006969;28;20455;-69
2022/09/22 03:54:55;;;;;;;1.30;1.00;;;9.40;41.70;;;;;;4999965;28;20212;-69
2022/09/22 03:57:21;;;;;;;1.30;1.07;;;9.30;42.50;;;;;;5009113;28;20177;-69
2022/09/22 03:59:47;;;;;;;1.33;1.10;;;9.30;42.00;;;;;;5011197;28;20209;-69
2022/09/22 04:02:13;;;;;;;1.30;1.10;;;9.20;43.20;;;;;;5003532;28;20711;-69
2022/09/22 04:04:38;;;;;;;1.30;1.00;;;9.10;43.00;;;;;;5008758;28;20213;-69
2022/09/22 04:07:04;;;;;;;1.30;1.10;;;9.20;42.50;;;;;;5005712;28;20194;-68
2022/09/22 04:09:29;;;;;;;1.30;1.10;;;9.10;42.60;;;;;;5007964;28;20216;-69
2022/09/22 04:11:55;;;;;;;1.30;1.00;;;9.30;41.80;;;;;;5003005;28;20201;-69
2022/09/22 04:14:21;;;;;;;1.30;1.10;;;9.20;41.20;;;;;;5002720;28;20652;-69
2022/09/22 04:16:46;;;;;;;1.97;1.87;;;9.10;42.30;;;;;;5002758;28;20236;-69
2022/09/22 04:19:12;;;;;;;1.30;1.00;;;9.20;41.80;;;;;;5010619;28;20181;-69
2022/09/22 04:21:38;;;;;;;1.30;1.00;;;9.10;41.70;;;;;;5010906;28;20205;-69
2022/09/22 04:24:09;;;;;;;1.30;1.10;;;9.10;42.20;;;;;;5011208;28;20259;-69
2022/09/22 04:26:35;;;;;;;1.30;1.08;;;9.10;41.90;;;;;;5010814;28;20178;-69
2022/09/22 04:29:01;;;;;;;1.30;1.10;;;9.10;41.90;;;;;;5010659;28;20212;-69
2022/09/22 04:31:26;;;;;;;1.30;1.00;;;9.00;41.40;;;;;;5012512;28;20443;-69
2022/09/22 04:33:52;;;;;;;1.30;1.10;;;9.10;41.00;;;;;;5006058;28;20181;-69
2022/09/22 04:36:17;;;;;;;1.50;1.20;;;9.10;41.20;;;;;;5003763;28;20174;-69
2022/09/22 04:38:43;;;;;;;1.30;1.10;;;9.00;41.10;;;;;;5009942;28;20212;-69
2022/09/22 04:41:08;;;;;;;1.30;1.10;;;8.90;41.90;;;;;;5012468;28;20676;-69
2022/09/22 04:43:34;;;;;;;1.30;1.00;;;8.90;42.10;;;;;;5007937;28;20173;-70
2022/09/22 04:46:00;;;;;;;1.30;1.10;;;8.90;42.60;;;;;;5014283;28;20197;-69
2022/09/22 04:48:26;;;;;;;1.33;1.10;;;8.80;42.00;;;;;;5006728;28;20189;-69
2022/09/22 04:50:51;;;;;;;1.30;1.10;;;8.80;42.10;;;;;;5007930;28;20208;-69
2022/09/22 04:53:17;;;;;;;1.37;1.10;;;8.80;42.10;;;;;;5004189;28;20237;-69
2022/09/22 04:55:43;;;;;;;1.30;1.00;;;8.80;42.90;;;;;;5014429;28;20193;-70
2022/09/22 04:58:08;;;;;;;1.30;1.00;;;8.80;42.80;;;;;;5006436;28;20185;-69
2022/09/22 05:00:34;;;;;;;1.30;1.10;;;8.90;43.20;;;;;;5006386;28;20182;-70
2022/09/22 05:03:02;;;;;;;1.30;1.00;;;9.00;41.90;;;;;;5014058;28;20998;-69
2022/09/22 05:05:28;;;;;;;1.30;1.08;;;9.10;41.20;;;;;;5005986;28;20692;-68
2022/09/22 05:07:54;;;;;;;1.30;1.10;;;9.10;42.30;;;;;;5014095;28;20186;-69
2022/09/22 05:10:24;;;;;;;1.30;1.10;;;8.70;42.40;;;;;;5013900;28;20180;-68
2022/09/22 05:12:51;;;;;;;1.30;1.10;;;9.00;41.50;;;;;;5005516;28;20184;-69
2022/09/22 05:15:17;;;;;;;1.30;1.10;;;9.10;40.80;;;;;;5007752;28;20178;-69
2022/09/22 05:17:47;;;;;;;1.30;1.10;;;9.00;41.70;;;;;;5011669;28;20173;-70
2022/09/22 05:20:13;;;;;;;1.33;1.10;;;9.00;42.10;;;;;;5014249;28;20185;-69
2022/09/22 05:22:39;;;;;;;1.30;1.13;;;8.90;42.70;;;;;;5005250;28;20596;-69
2022/09/22 05:25:10;;;;;;;1.40;1.10;;;8.90;42.50;;;;;;5013259;28;20431;-70
2022/09/22 05:27:42;;;;;;;1.30;1.00;;;8.90;42.30;;;;;;5006674;28;20421;-69
2022/09/22 05:30:08;;;;;;;1.40;1.10;;;8.80;41.90;;;;;;5013803;28;20263;-69
2022/09/22 05:32:34;;;;;;;1.30;1.10;;;9.00;41.70;;;;;;5013416;28;20197;-70
2022/09/22 05:34:59;;;;;;;1.30;1.10;;;9.00;41.50;;;;;;5013519;28;20315;-69
2022/09/22 05:37:25;;;;;;;1.30;1.10;;;9.00;42.00;;;;;;5008736;28;20198;-69
2022/09/22 05:39:50;;;;;;;1.30;1.07;;;9.00;41.90;;;;;;5002129;28;20213;-67
2022/09/22 05:42:16;;;;;;;1.30;1.20;;;8.80;42.60;;;;;;5009426;28;20219;-69
2022/09/22 05:44:41;;;;;;;1.30;1.10;;;8.70;42.80;;;;;;5008165;28;20177;-69
2022/09/22 05:47:07;;;;;;;3.20;1.87;;;8.70;43.10;;;;;;5013490;28;20637;-69
2022/09/22 05:49:32;;;;;;;1.33;1.10;;;8.80;43.10;;;;;;5005281;28;20197;-69
2022/09/22 05:51:58;;;;;;;1.30;1.10;;;9.00;42.50;;;;;;5012432;28;20212;-69
2022/09/22 05:54:24;;;;;;;1.40;1.10;;;9.00;43.10;;;;;;5029914;28;20658;-69
2022/09/22 05:56:50;;;;;;;1.37;1.20;;;9.20;42.50;;;;;;5013456;28;20306;-69
2022/09/22 05:59:16;;;;;;;1.30;1.10;;;9.20;42.70;;;;;;5013204;28;20186;-69
2022/09/22 06:01:42;;;;;;;1.30;1.07;;;9.20;42.80;;;;;;5005404;28;20673;-70
2022/09/22 06:04:08;;;;;;;1.30;1.10;;;9.10;42.80;;;;;;5006307;28;20539;-69
2022/09/22 06:06:33;;;;;;;1.30;1.10;;;9.20;42.50;;;;;;5009964;28;20443;-69
2022/09/22 06:08:59;;;;;;;1.30;1.00;;;9.10;43.60;;;;;;5006764;28;20201;-69
2022/09/22 06:11:24;;;;;;;1.30;1.00;;;9.30;42.60;;;;;;5004603;28;20204;-68
2022/09/22 06:13:50;;;;;;;1.30;1.10;;;9.30;42.80;;;;;;5004489;28;20185;-69
2022/09/22 06:16:17;;;;;;;1.30;1.07;;;9.30;42.90;;;;;;5005008;28;20173;-69
2022/09/22 06:18:46;;;;;;;1.30;1.00;;;9.50;43.00;;;;;;5012845;28;20239;-69
2022/09/22 06:21:13;;;;;;;1.30;1.10;;;9.50;42.60;;;;;;5004565;28;20642;-69
2022/09/22 06:23:39;;;;;;;1.30;1.05;;;9.60;43.10;;;;;;5004381;28;20263;-70
2022/09/22 06:26:06;;;;;;;1.30;1.10;;;9.70;42.80;;;;;;5009434;28;20266;-69
2022/09/22 06:28:31;;;;;;;1.30;1.00;;;9.90;42.30;;;;;;5008472;28;20223;-68
2022/09/22 06:30:59;;;;;;;1.40;1.13;;;9.90;42.50;;;;;;5003776;28;20197;-70
2022/09/22 06:33:25;;;;;;;1.30;1.00;;;10.00;41.70;;;;;;5004559;28;20177;-70
2022/09/22 06:35:50;;;;;;;1.30;1.00;;;10.10;42.40;;;;;;5011709;28;20192;-69
2022/09/22 06:38:16;;;;;;;1.30;1.00;;;10.20;41.90;;;;;;5011452;28;20190;-69
2022/09/22 06:40:42;;;;;;;1.30;1.00;;;10.30;41.90;;;;;;5011301;28;20641;-68
2022/09/22 06:43:21;;;;;;;1.30;1.10;;;10.40;42.60;;;;;;5003241;28;20556;-69
2022/09/22 06:45:50;;;;;;;1.30;1.00;;;10.30;41.70;;;;;;5012503;28;20185;-69
2022/09/22 06:48:15;;;;;;;1.30;1.00;;;10.10;43.10;;;;;;5004231;28;20202;-70
2022/09/22 06:50:50;;;;;;;1.30;1.10;;;10.20;42.00;;;;;;5012316;28;20180;-70
2022/09/22 06:53:17;;;;;;;1.30;1.10;;;10.30;42.40;;;;;;5011307;28;20215;-70
2022/09/22 06:55:43;;;;;;;1.30;1.00;;;10.10;42.30;;;;;;5007144;28;20183;-70
2022/09/22 06:58:10;;;;;;;1.30;1.20;;;10.40;42.30;;;;;;5009435;28;20187;-70
2022/09/22 07:00:35;;;;;;;1.50;1.23;;;10.10;43.40;;;;;;5008923;28;20430;-69
2022/09/22 07:03:07;;;;;;;1.30;1.00;;;10.10;42.60;;;;;;5007173;28;20197;-70
2022/09/22 07:05:35;;;;;;;1.30;1.00;;;10.00;43.30;;;;;;5011555;28;20543;-70
2022/09/22 07:08:03;;;;;;;1.30;1.10;;;10.40;42.60;;;;;;5012374;28;20541;-69
2022/09/22 07:10:29;;;;;;;1.30;1.00;;;10.40;42.20;;;;;;5003962;28;20179;-70
2022/09/22 07:12:57;;;;;;;1.60;1.27;;;10.30;42.30;;;;;;5011198;28;20177;-69
2022/09/22 07:15:23;;;;;;;1.30;1.10;;;10.30;42.80;;;;;;5003576;28;20179;-69
2022/09/22 07:17:52;;;;;;;1.30;1.00;;;10.30;43.30;;;;;;5011652;28;20177;-69
2022/09/22 07:20:19;;;;;;;1.60;1.30;;;10.60;42.10;;;;;;5035448;28;20183;-70
2022/09/22 07:22:45;;;;;;;1.30;1.10;;;10.70;42.20;;;;;;5003152;28;20255;-69
2022/09/22 07:25:12;;;;;;;1.30;1.10;;;10.30;42.60;;;;;;5006623;28;20657;-69
2022/09/22 07:27:37;;;;;;;1.30;1.10;;;10.70;41.90;;;;;;5008363;28;20429;-69
2022/09/22 07:30:04;;;;;;;1.30;1.10;;;11.00;41.00;;;;;;5003414;28;20202;-70
2022/09/22 07:32:33;;;;;;;1.30;1.10;;;10.90;41.10;;;;;;5010830;28;20458;-69
2022/09/22 07:34:59;;;;;;;1.30;1.05;;;10.90;41.40;;;;;;5011368;28;20242;-69
2022/09/22 07:37:28;;;;;;;1.50;1.20;;;11.10;41.40;;;;;;5010008;28;20172;-69
2022/09/22 07:39:54;;;;;;;1.30;1.00;;;11.40;40.60;;;;;;5011434;28;20191;-69
2022/09/22 07:42:20;;;;;;;1.30;1.02;;;11.60;39.50;;;;;;5003011;28;20220;-69
2022/09/22 07:50:16;;;;;;;1.30;1.10;;;11.70;40.40;;;;;;5002459;28;20239;-70
2022/09/22 07:52:42;;;;;;;1.30;1.10;;;11.60;39.40;;;;;;5005383;28;20252;-70
2022/09/22 07:55:08;;;;;;;1.30;1.10;;;12.20;40.50;;;;;;5000798;28;20596;-71
2022/09/22 07:57:33;;;;;;;1.30;1.03;;;12.20;39.60;;;;;;5003535;28;20227;-70
2022/09/22 07:59:59;;;;;;;1.30;1.00;;;12.50;38.90;;;;;;5011331;28;20428;-70
2022/09/22 08:02:27;;;;;;;1.30;1.00;;;12.80;37.70;;;;;;5000624;28;20200;-70
2022/09/22 08:05:01;;;;;;;1.30;1.10;;;12.80;38.20;;;;;;5004619;28;20260;-70
2022/09/22 08:07:30;;;;;;;1.30;1.00;;;12.90;37.30;;;;;;5011558;28;20268;-69
2022/09/22 08:09:56;;;;;;;1.30;1.10;;;12.60;36.90;;;;;;5006230;28;20197;-69
2022/09/22 08:12:21;;;;;;;1.30;1.00;;;12.40;37.80;;;;;;5007654;28;20207;-70
2022/09/22 08:14:47;;;;;;;1.30;1.10;;;12.50;37.60;;;;;;5013383;28;20556;-69
2022/09/22 08:17:12;;;;;;;1.40;1.20;;;12.00;39.00;;;;;;5013845;28;20213;-69
2022/09/22 08:19:38;;;;;;;1.30;1.00;;;12.00;40.00;;;;;;5012607;28;20309;-70
2022/09/22 08:22:03;;;;;;;1.30;1.03;;;12.40;39.90;;;;;;5013459;28;20213;-70
2022/09/22 08:24:29;;;;;;;1.30;1.10;;;12.70;38.90;;;;;;5004917;28;20178;-70
2022/09/22 08:26:55;;;;;;;1.30;1.00;;;13.30;37.90;;;;;;5011350;28;20181;-70
2022/09/22 08:29:21;;;;;;;1.30;1.20;;;13.60;36.50;;;;;;5004790;28;20571;-69
2022/09/22 08:31:47;;;;;;;1.30;1.20;;;13.10;36.90;;;;;;5000262;28;20221;-69
2022/09/22 08:34:15;;;;;;;1.30;1.10;;;13.20;36.60;;;;;;5011198;28;20421;-70
2022/09/22 08:36:47;;;;;;;1.30;1.10;;;13.40;37.70;;;;;;5003304;28;20421;-70
2022/09/22 08:39:13;;;;;;;1.30;1.00;;;13.50;37.10;;;;;;5002778;28;20422;-70
2022/09/22 08:41:54;;;;;;;1.50;1.20;;;13.90;36.50;;;;;;5009072;28;20491;-70
2022/09/22 08:44:27;;;;;;;1.30;1.10;;;13.80;35.90;;;;;;4998244;28;20506;-70
2022/09/22 08:46:59;;;;;;;1.30;1.00;;;13.40;35.60;;;;;;5004065;28;20420;-70
2022/09/22 08:52:53;;;;;;;1.30;1.20;;;14.20;35.00;;;;;;4995318;28;20454;-70
2022/09/22 08:55:22;;;;;;;1.30;1.17;;;13.60;35.80;;;;;;5001988;28;20785;-69
2022/09/22 08:58:06;;;;;;;1.30;1.13;;;13.80;36.90;;;;;;5010892;28;20451;-70
2022/09/22 09:00:47;;;;;;;1.40;1.20;;;13.90;36.00;;;;;;5002711;28;20483;-69
2022/09/22 09:03:31;;;;;;;1.30;1.13;;;13.80;36.70;;;;;;5010376;28;20427;-70
2022/09/22 09:06:28;;;;;;;1.30;1.10;;;14.50;35.80;;;;;;5010601;28;20434;-70
2022/09/22 09:09:18;;;;;;;1.30;1.10;;;14.80;34.40;;;;;;5004974;28;20545;-69
2022/09/22 09:12:05;;;;;;;1.30;1.07;;;15.10;35.20;;;;;;5002716;28;20448;-69
2022/09/22 09:14:45;;;;;;;1.30;1.10;;;14.90;34.00;;;;;;5002149;28;20430;-70
2022/09/22 09:17:17;;;;;;;1.30;1.10;;;14.90;35.10;;;;;;5006552;28;20457;-70
2022/09/22 09:19:49;;;;;;;1.30;1.10;;;14.80;35.80;;;;;;5005435;28;20468;-70
2022/09/22 09:22:23;;;;;;;1.30;1.10;;;15.30;35.00;;;;;;5013996;28;20475;-70
2022/09/22 09:24:57;;;;;;;1.30;1.20;;;15.20;35.10;;;;;;5013455;28;20435;-70
2022/09/22 09:27:27;;;;;;;1.30;1.13;;;15.70;34.10;;;;;;5006082;28;20479;-70
2022/09/22 09:30:11;;;;;;;1.80;1.67;;;16.30;33.20;;;;;;5000356;28;20529;-70
2022/09/22 09:32:56;;;;;;;1.30;1.10;;;16.60;32.10;;;;;;5007338;28;20434;-70
2022/09/22 09:35:27;;;;;;;1.30;1.20;;;16.70;31.40;;;;;;5002426;28;20462;-70
2022/09/22 09:37:57;;;;;;;1.30;1.10;;;16.60;32.90;;;;;;5010586;28;20421;-70
2022/09/22 09:40:23;;;;;;;1.30;1.10;;;16.20;32.60;;;;;;5007661;28;20443;-70
2022/09/22 09:43:05;;;;;;;1.30;1.00;;;16.20;32.90;;;;;;5004746;28;20948;-70
2022/09/22 09:45:36;;;;;;;1.30;1.20;;;16.70;31.90;;;;;;5013662;28;20416;-70
2022/09/22 09:48:08;;;;;;;2.37;1.53;;;17.20;32.50;;;;;;5013360;28;20428;-70
2022/09/22 09:50:36;;;;;;;1.30;1.10;;;17.30;30.70;;;;;;5009177;28;20584;-70
2022/09/22 09:53:02;;;;;;;1.30;1.10;;;17.30;30.70;;;;;;5004876;28;20428;-70
2022/09/22 09:55:28;;;;;;;1.30;1.10;;;16.50;32.20;;;;;;5012983;28;20426;-70
2022/09/22 09:58:05;;;;;;;1.30;1.10;;;17.10;32.80;;;;;;5005649;28;20501;-70
2022/09/22 10:00:33;;;;;;;1.30;1.10;;;17.60;30.00;;;;;;5002059;28;20551;-70
2022/09/22 10:03:01;;;;;;;1.30;1.10;;;17.70;26.30;;;;;;5009499;28;20432;-70
2022/09/22 10:05:28;;;;;;;1.30;1.20;;;17.90;27.20;;;;;;5018684;23;20766;-75
2022/09/22 10:08:01;;;;;;;1.30;1.13;;;18.60;23.80;;;;;;5006811;28;20824;-76
2022/09/22 10:10:34;;;;;;;1.30;1.20;;;19.00;23.00;;;;;;5004901;28;20452;-76
2022/09/22 10:13:03;;;;;;;1.30;1.30;;;19.30;22.70;;;;;;5004504;28;20482;-76
2022/09/22 10:15:33;;;;;;;1.30;1.10;;;19.20;23.00;;;;;;5004548;28;20413;-76
2022/09/22 10:17:59;;;;;;;1.30;1.20;;;19.70;23.80;;;;;;5006410;28;20828;-76
2022/09/22 10:20:32;;;;;;;1.30;1.17;;;19.80;23.60;;;;;;5011761;28;20462;-76
2022/09/22 10:23:21;;;;;;;1.30;1.20;;;20.00;22.40;;;;;;5012243;28;20174;-76
2022/09/22 10:25:49;;;;;;;1.30;1.20;;;20.10;21.70;;;;;;5012909;28;20440;-76
2022/09/22 10:28:18;;;;;;;1.30;1.10;;;20.20;21.40;;;;;;5004315;28;20420;-76
2022/09/22 10:30:57;;;;;;;1.30;1.17;;;20.00;21.20;;;;;;5007391;28;20438;-76
2022/09/22 10:33:23;;;;;;;1.30;1.20;;;20.00;22.80;;;;;;5004069;28;20453;-76
2022/09/22 10:36:07;;;;;;;1.30;1.10;;;20.10;20.20;;;;;;5012503;28;20485;-76
2022/09/22 10:38:37;;;;;;;1.30;1.20;;;20.40;21.00;;;;;;5004344;28;20177;-76
2022/09/22 10:41:09;;;;;;;1.30;1.10;;;20.40;21.00;;;;;;5012244;28;20500;-76
2022/09/22 10:43:47;;;;;;;1.30;1.20;;;20.10;21.60;;;;;;5011380;28;20554;-76
2022/09/22 10:46:27;;;;;;;1.30;1.20;;;20.60;21.70;;;;;;5005777;28;20969;-76
2022/09/22 10:49:03;;;;;;;1.37;1.30;;;20.80;19.80;;;;;;5005168;28;20449;-76
2022/09/22 10:51:42;;;;;;;1.30;1.20;;;21.40;20.20;;;;;;5010825;28;20425;-76
2022/09/22 10:54:32;;;;;;;1.30;1.10;;;22.10;17.80;;;;;;5000862;28;20963;-76
2022/09/22 10:57:08;;;;;;;1.30;1.30;;;22.00;18.30;;;;;;5004849;28;20446;-76
2022/09/22 11:00:01;;;;;;;1.30;1.10;;;21.90;19.60;;;;;;5012258;28;20422;-76
2022/09/22 11:02:44;;;;;;;1.30;1.10;;;22.10;19.20;;;;;;5004207;28;20410;-76
2022/09/22 11:14:19;;;;;;;1.30;1.00;;;23.20;15.70;;;;;;5003396;28;20418;-77
2022/09/22 11:17:07;;;;;;;1.30;1.10;;;23.50;17.60;;;;;;4992322;28;20449;-77
2022/09/22 11:19:43;;;;;;;1.30;1.10;;;23.80;17.10;;;;;;5012092;28;20463;-76
2022/09/22 11:22:21;;;;;;;1.93;1.73;;;23.80;16.50;;;;;;5000148;28;20431;-76
2022/09/22 11:24:58;;;;;;;1.30;1.10;;;23.60;16.20;;;;;;5009049;28;20418;-76
2022/09/22 11:27:40;;;;;;;1.30;1.10;;;23.60;17.20;;;;;;5006202;28;20451;-77
2022/09/22 11:30:19;;;;;;;1.30;1.17;;;23.70;17.70;;;;;;5008635;28;20467;-76
2022/09/22 11:33:01;;;;;;;1.30;1.10;;;23.40;17.40;;;;;;5007780;28;20407;-77
2022/09/22 11:35:33;;;;;;;1.30;1.10;;;23.60;19.10;;;;;;5003221;28;20416;-76
2022/09/22 11:38:37;;;;;;;1.30;1.10;;;23.50;15.50;;;;;;5003363;28;20439;-77
2022/09/22 11:41:24;;;;;;;1.30;1.00;;;23.70;14.90;;;;;;5009111;28;20941;-77
2022/09/22 11:43:58;;;;;;;1.30;1.00;;;24.40;15.80;;;;;;5007872;28;20424;-77
2022/09/22 11:46:57;;;;;;;1.30;1.10;;;24.40;15.20;;;;;;5004067;28;20443;-76
2022/09/22 11:49:49;;;;;;;1.30;1.10;;;24.80;15.70;;;;;;5002835;28;20881;-76
2022/09/22 11:52:41;;;;;;;1.30;1.00;;;25.10;14.30;;;;;;5001456;28;20511;-77
2022/09/22 11:55:39;;;;;;;1.30;1.10;;;25.80;13.70;;;;;;5009160;28;21000;-77
2022/09/22 11:58:12;;;;;;;1.30;0.90;;;26.70;11.90;;;;;;5009687;28;20818;-77
2022/09/22 12:00:49;;;;;;;1.30;1.00;;;26.90;12.20;;;;;;5005118;28;20435;-77
2022/09/22 12:03:39;;;;;;;1.30;1.00;;;27.70;11.70;;;;;;5002561;28;20785;-77
2022/09/22 12:06:09;;;;;;;1.20;1.00;;;27.30;11.20;;;;;;5010786;28;20459;-77
2022/09/22 12:08:52;;;;;;;1.20;0.90;;;27.20;10.40;;;;;;5000081;28;20500;-77
2022/09/22 12:11:19;;;;;;;1.30;1.10;;;27.10;10.90;;;;;;5003555;28;20941;-77
2022/09/22 12:13:49;;;;;;;1.27;1.00;;;26.60;13.40;;;;;;5000875;28;20416;-76
2022/09/22 12:16:50;;;;;;;1.30;1.10;;;26.20;12.20;;;;;;5002915;28;20771;-77
2022/09/22 12:19:28;;;;;;;1.30;1.00;;;25.50;12.50;;;;;;4991354;28;20475;-77
2022/09/22 12:22:16;;;;;;;1.30;1.10;;;24.70;16.70;;;;;;5002208;28;20988;-76
2022/09/22 12:24:45;;;;;;;1.30;1.10;;;24.60;14.10;;;;;;5010961;28;20424;-76
2022/09/22 12:27:19;;;;;;;1.30;1.10;;;24.70;13.40;;;;;;5010963;28;20502;-76
2022/09/22 12:29:52;;;;;;;1.30;1.10;;;24.80;14.60;;;;;;5011075;28;20615;-76
2022/09/22 12:32:24;;;;;;;1.30;1.10;;;24.40;13.80;;;;;;5003499;28;20412;-76
2022/09/22 12:34:51;;;;;;;1.30;1.13;;;23.90;14.40;;;;;;5003606;28;20447;-76
2022/09/22 12:37:36;;;;;;;1.30;1.10;;;23.60;16.50;;;;;;5010922;28;20440;-76
2022/09/22 12:40:24;;;;;;;1.30;1.10;;;23.80;16.50;;;;;;5005623;28;20564;-76
2022/09/22 12:42:51;;;;;;;1.30;1.30;;;23.50;13.60;;;;;;4998925;28;20433;-77
2022/09/22 12:45:20;;;;;;;1.30;1.20;;;23.90;15.80;;;;;;5006611;28;20423;-76
2022/09/22 12:47:50;;;;;;;1.30;1.10;;;24.50;14.50;;;;;;5010894;28;20482;-76
2022/09/22 12:50:33;;;;;;;1.30;1.10;;;24.80;13.90;;;;;;5003452;28;20487;-76
2022/09/22 12:53:02;;;;;;;1.30;1.20;;;24.40;13.50;;;;;;5014526;28;20507;-76
2022/09/22 12:55:37;;;;;;;1.30;1.10;;;24.40;14.10;;;;;;5011210;28;20423;-77
2022/09/22 12:58:22;;;;;;;1.30;1.10;;;25.00;15.10;;;;;;5003314;28;20426;-77
2022/09/22 13:00:49;;;;;;;1.30;1.10;;;25.60;14.70;;;;;;5012945;28;20491;-77
2022/09/22 13:03:23;;;;;;;1.30;1.10;;;26.00;12.00;;;;;;5014334;28;20416;-77
2022/09/22 13:05:56;;;;;;;1.30;1.03;;;26.50;11.90;;;;;;5014062;28;20962;-77
2022/09/22 13:08:35;;;;;;;1.30;1.10;;;25.60;11.60;;;;;;5006196;28;20977;-77
2022/09/22 13:11:03;;;;;;;1.27;1.10;;;25.40;12.50;;;;;;5010880;28;20416;-77
2022/09/22 13:13:32;;;;;;;1.30;1.10;;;25.20;13.60;;;;;;5009689;28;20456;-77
2022/09/22 13:16:00;;;;;;;1.30;1.00;;;25.20;12.60;;;;;;5006102;28;20951;-77
2022/09/22 13:18:30;;;;;;;1.30;1.07;;;25.10;12.40;;;;;;5006508;28;20471;-76
2022/09/22 13:21:19;;;;;;;1.30;1.10;;;25.10;14.10;;;;;;5013306;28;20606;-77
2022/09/22 13:23:48;;;;;;;1.30;1.20;;;24.90;13.40;;;;;;5006158;28;20416;-76
2022/09/22 13:26:15;;;;;;;1.30;1.10;;;24.90;14.80;;;;;;5006707;28;21147;-77
2022/09/22 13:28:41;;;;;;;1.30;1.20;;;25.40;13.00;;;;;;5014389;28;20443;-77
2022/09/22 13:31:16;;;;;;;1.30;1.13;;;25.50;14.00;;;;;;5003520;28;20420;-76